createdAt,value
2019-06-10T00:02:15.331Z,3.40
2019-06-10T00:04:50.810Z,2.73
2019-06-10T00:07:26.086Z,2.80
2019-06-10T00:10:02.451Z,3.33
2019-06-10T00:12:36.941Z,3.37
2019-06-10T00:15:11.632Z,3.15
2019-06-10T00:17:53.365Z,3.13
2019-06-10T00:20:22.293Z,2.80
2019-06-10T00:22:57.426Z,3.43
2019-06-10T00:25:31.967Z,3.17
2019-06-10T00:28:07.390Z,2.50
2019-06-10T00:30:42.130Z,2.73
2019-06-10T00:33:16.661Z,2.87
2019-06-10T00:35:51.939Z,3.00
2019-06-10T00:41:01.936Z,2.80
2019-06-10T00:43:35.327Z,3.15
2019-06-10T00:46:13.156Z,3.10
2019-06-10T00:48:45.947Z,2.60
2019-06-10T00:51:21.015Z,2.58
2019-06-10T00:53:55.714Z,2.50
2019-06-10T00:56:30.815Z,2.80
2019-06-10T00:59:05.853Z,3.20
2019-06-10T01:01:41.598Z,3.80
2019-06-10T01:04:16.644Z,3.10
2019-06-10T01:09:25.731Z,3.15
2019-06-10T01:12:01.164Z,3.13
2019-06-10T01:14:35.732Z,3.40
2019-06-10T01:17:12.220Z,3.83
2019-06-10T01:19:46.574Z,3.90
2019-06-10T01:22:21.362Z,3.50
2019-06-10T01:24:55.927Z,3.20
2019-06-10T01:27:31.502Z,3.37
2019-06-10T01:30:16.679Z,3.80
2019-06-10T01:32:43.054Z,3.87
2019-06-10T01:35:17.666Z,4.17
2019-06-10T01:37:52.277Z,3.67
2019-06-10T01:40:26.681Z,4.10
2019-06-10T01:43:01.212Z,3.40
2019-06-10T01:45:35.903Z,3.60
2019-06-10T01:48:12.099Z,4.00
2019-06-10T01:50:46.307Z,3.90
2019-06-10T01:53:22.212Z,3.87
2019-06-10T01:55:56.679Z,4.13
2019-06-10T02:01:15.602Z,4.15
2019-06-10T02:03:48.942Z,4.17
2019-06-10T02:06:25.782Z,4.10
2019-06-10T02:09:09.593Z,3.83
2019-06-10T02:11:44.781Z,3.80
2019-06-10T02:16:54.135Z,4.37
2019-06-10T02:19:30.921Z,4.83
2019-06-10T02:22:04.924Z,4.00
2019-06-10T02:24:41.532Z,4.35
2019-06-10T02:27:16.294Z,4.43
2019-06-10T02:29:51.853Z,3.90
2019-06-10T02:32:33.100Z,4.43
2019-06-10T02:35:13.215Z,4.77
2019-06-10T02:37:39.685Z,4.40
2019-06-10T02:42:53.802Z,4.23
2019-06-10T02:45:36.293Z,4.63
2019-06-10T02:48:04.104Z,4.00
2019-06-10T02:51:05.993Z,4.10
2019-06-10T02:53:43.430Z,4.50
2019-06-10T02:56:17.772Z,4.70
2019-06-10T02:58:53.588Z,5.07
2019-06-10T03:01:32.653Z,4.50
2019-06-10T03:04:04.773Z,4.63
2019-06-10T03:06:40.417Z,4.33
2019-06-10T03:09:16.607Z,4.73
2019-06-10T03:11:53.531Z,4.87
2019-06-10T03:14:28.271Z,4.70
2019-06-10T03:17:04.625Z,4.87
2019-06-10T03:19:47.863Z,4.70
2019-06-10T03:24:47.937Z,5.00
2019-06-10T03:27:23.534Z,4.75
2019-06-10T03:29:59.071Z,5.17
2019-06-10T03:32:40.668Z,5.70
2019-06-10T03:35:12.943Z,5.15
2019-06-10T03:37:46.137Z,5.10
2019-06-10T03:40:23.514Z,4.77
2019-06-10T03:42:57.101Z,5.45
2019-06-10T03:45:32.391Z,5.57
2019-06-10T03:48:07.273Z,5.30
2019-06-10T03:50:43.131Z,4.90
2019-06-10T03:53:19.062Z,5.10
2019-06-10T03:55:53.638Z,5.00
2019-06-10T03:58:29.203Z,4.90
2019-06-10T04:01:03.745Z,5.27
2019-06-10T04:06:12.967Z,5.03
2019-06-10T04:11:19.966Z,5.62
2019-06-10T04:16:28.942Z,5.00
2019-06-10T04:19:03.317Z,6.50
2019-06-10T04:21:37.983Z,5.83
2019-06-10T04:24:12.800Z,6.33
2019-06-10T04:26:47.691Z,6.03
2019-06-10T04:29:23.039Z,5.70
2019-06-10T04:34:33.230Z,6.42
2019-06-10T04:37:07.128Z,6.20
2019-06-10T04:39:42.769Z,6.57
2019-06-10T04:42:18.354Z,6.07
2019-06-10T04:44:52.956Z,6.90
2019-06-10T04:47:28.332Z,6.23
2019-06-10T04:50:03.409Z,7.70
2019-06-10T04:52:37.937Z,6.80
2019-06-10T04:55:12.794Z,6.83
2019-06-10T04:57:47.350Z,7.45
2019-06-10T05:00:24.083Z,7.17
2019-06-10T05:02:58.716Z,7.57
2019-06-10T05:10:42.300Z,7.07
2019-06-10T05:15:49.329Z,6.60
2019-06-10T05:18:25.601Z,7.20
2019-06-10T05:21:02.502Z,6.90
2019-06-10T05:23:36.275Z,6.90
2019-06-10T05:26:13.037Z,10.20
2019-06-10T05:28:46.878Z,15.65
2019-06-10T05:33:54.312Z,7.07
2019-06-10T05:36:30.153Z,7.62
2019-06-10T05:39:05.750Z,7.08
2019-06-10T05:44:13.617Z,6.97
2019-06-10T05:46:48.122Z,6.90
2019-06-10T05:49:24.727Z,7.10
2019-06-10T05:51:58.947Z,6.37
2019-06-10T05:54:35.283Z,33.02
2019-06-10T05:57:09.266Z,18.70
2019-06-10T05:59:43.729Z,9.23
2019-06-10T06:02:17.950Z,6.77
2019-06-10T06:04:53.076Z,6.20
2019-06-10T06:07:27.656Z,6.50
2019-06-10T06:12:37.748Z,6.23
2019-06-10T06:15:12.936Z,6.10
2019-06-10T06:17:47.322Z,6.95
2019-06-10T06:20:23.506Z,6.45
2019-06-10T06:22:57.949Z,8.17
2019-06-10T06:25:39.018Z,12.10
2019-06-10T06:28:08.338Z,6.53
2019-06-10T06:30:42.734Z,6.90
2019-06-10T06:33:17.132Z,6.00
2019-06-10T06:35:52.457Z,5.90
2019-06-10T06:38:27.111Z,6.20
2019-06-10T06:41:03.184Z,6.23
2019-06-10T06:43:41.945Z,5.87
2019-06-10T06:46:13.952Z,6.42
2019-06-10T06:48:49.286Z,5.97
2019-06-10T06:51:35.723Z,6.07
2019-06-10T06:53:59.942Z,6.07
2019-06-10T06:56:37.055Z,5.90
2019-06-10T06:59:13.170Z,5.63
2019-06-10T07:01:48.293Z,5.80
2019-06-10T07:04:23.568Z,6.00
2019-06-10T07:06:58.940Z,4.83
2019-06-10T07:09:37.340Z,4.90
2019-06-10T07:12:13.053Z,4.90
2019-06-10T07:14:49.699Z,4.80
2019-06-10T07:17:24.365Z,5.77
2019-06-10T07:19:58.801Z,4.50
2019-06-10T07:25:08.692Z,4.97
2019-06-10T07:27:46.509Z,5.00
2019-06-10T07:30:19.281Z,4.97
2019-06-10T07:32:53.905Z,4.67
2019-06-10T07:35:28.317Z,4.72
2019-06-10T07:38:03.488Z,4.53
2019-06-10T07:40:57.557Z,4.12
2019-06-10T07:43:38.283Z,4.60
2019-06-10T07:46:35.122Z,3.55
2019-06-10T07:54:36.279Z,4.40
2019-06-10T07:57:12.921Z,4.10
2019-06-10T07:59:47.765Z,3.80
2019-06-10T08:04:56.945Z,3.93
2019-06-10T08:07:33.514Z,4.43
2019-06-10T08:10:10.315Z,3.67
2019-06-10T08:12:47.969Z,3.75
2019-06-10T08:15:23.002Z,4.03
2019-06-10T08:17:58.124Z,3.93
2019-06-10T08:20:48.258Z,3.70
2019-06-10T08:23:24.113Z,3.93
2019-06-10T08:25:59.279Z,3.80
2019-06-10T08:28:35.495Z,3.53
2019-06-10T08:31:12.318Z,3.50
2019-06-10T08:33:48.979Z,3.35
2019-06-10T08:36:24.408Z,3.12
2019-06-10T08:38:59.125Z,3.87
2019-06-10T08:41:33.698Z,3.70
2019-06-10T08:46:43.656Z,3.20
2019-06-10T08:49:17.343Z,3.20
2019-06-10T08:51:53.399Z,3.33
2019-06-10T08:54:28.283Z,3.30
2019-06-10T08:57:04.546Z,3.40
2019-06-10T08:59:40.019Z,4.20
2019-06-10T09:02:15.290Z,3.90
2019-06-10T09:04:52.957Z,3.97
2019-06-10T09:07:27.294Z,3.50
2019-06-10T09:10:02.954Z,4.33
2019-06-10T09:12:38.449Z,3.77
2019-06-10T09:15:15.116Z,3.60
2019-06-10T09:17:55.236Z,3.80
2019-06-10T09:20:28.386Z,3.80
2019-06-10T09:23:17.856Z,3.97
2019-06-10T09:28:12.818Z,3.75
2019-06-10T09:30:52.952Z,3.60
2019-06-10T09:33:23.647Z,4.30
2019-06-10T09:38:33.432Z,5.23
2019-06-10T09:41:07.894Z,4.53
2019-06-10T09:43:45.398Z,3.67
2019-06-10T09:48:55.743Z,4.63
2019-06-10T09:51:28.939Z,3.80
2019-06-10T09:54:06.635Z,3.58
2019-06-10T09:56:40.496Z,3.50
2019-06-10T09:59:16.704Z,3.50
2019-06-10T10:01:57.595Z,3.70
2019-06-10T10:09:37.149Z,3.60
2019-06-10T10:12:12.306Z,4.03
2019-06-10T10:14:49.650Z,4.33
2019-06-10T10:17:23.963Z,3.90
2019-06-10T10:19:59.302Z,4.03
2019-06-10T10:22:34.214Z,4.03
2019-06-10T10:25:09.320Z,4.00
2019-06-10T10:27:47.299Z,4.20
2019-06-10T10:30:27.757Z,4.30
2019-06-10T10:33:02.879Z,3.70
2019-06-10T10:35:38.278Z,3.27
2019-06-10T10:38:14.311Z,3.47
2019-06-10T10:40:50.635Z,3.42
2019-06-10T10:43:33.289Z,3.08
2019-06-10T10:46:05.680Z,3.10
2019-06-10T10:48:37.350Z,3.33
2019-06-10T10:51:13.132Z,3.40
2019-06-10T10:53:57.300Z,3.42
2019-06-10T10:56:24.339Z,3.17
2019-06-10T10:58:58.852Z,3.17
2019-06-10T11:04:08.284Z,3.00
2019-06-10T11:06:44.414Z,3.30
2019-06-10T11:09:23.279Z,3.42
2019-06-10T11:12:03.361Z,4.23
2019-06-10T11:14:37.335Z,3.87
2019-06-10T11:17:11.877Z,3.97
2019-06-10T11:19:47.290Z,3.90
2019-06-10T11:22:23.247Z,3.53
2019-06-10T11:24:58.236Z,3.83
2019-06-10T11:27:33.258Z,3.40
2019-06-10T11:30:08.874Z,3.83
2019-06-10T11:32:43.409Z,3.30
2019-06-10T11:35:18.223Z,3.40
2019-06-10T11:37:54.959Z,3.73
2019-06-10T11:40:28.941Z,3.35
2019-06-10T11:45:58.928Z,4.08
2019-06-10T11:48:27.661Z,3.93
2019-06-10T11:53:38.265Z,4.03
2019-06-10T11:56:13.192Z,4.60
2019-06-10T11:58:47.953Z,4.30
2019-06-10T12:01:23.004Z,4.10
2019-06-10T12:04:00.071Z,4.13
2019-06-10T12:06:34.049Z,4.20
2019-06-10T12:09:24.042Z,3.80
2019-06-10T12:12:02.398Z,4.20
2019-06-10T12:14:37.945Z,4.00
2019-06-10T12:17:24.617Z,4.47
2019-06-10T12:19:49.780Z,4.60
2019-06-10T12:22:24.269Z,4.33
2019-06-10T12:25:25.059Z,4.30
2019-06-10T12:27:34.919Z,4.30
2019-06-10T12:30:09.935Z,4.87
2019-06-10T12:32:44.302Z,4.87
2019-06-10T12:35:22.835Z,4.73
2019-06-10T12:37:59.527Z,4.50
2019-06-10T12:40:32.322Z,4.40
2019-06-10T12:43:07.505Z,4.43
2019-06-10T12:48:16.946Z,5.00
2019-06-10T12:50:53.847Z,5.17
2019-06-10T12:53:28.130Z,5.23
2019-06-10T12:56:07.949Z,5.40
2019-06-10T12:58:39.378Z,5.03
2019-06-10T13:01:14.075Z,4.70
2019-06-10T13:03:48.752Z,4.93
2019-06-10T13:06:24.345Z,5.10
2019-06-10T13:08:59.686Z,5.17
2019-06-10T13:11:36.872Z,4.73
2019-06-10T13:14:13.036Z,4.50
2019-06-10T13:16:49.106Z,5.20
2019-06-10T13:19:24.278Z,4.87
2019-06-10T13:21:59.293Z,5.47
2019-06-10T13:24:34.120Z,5.00
2019-06-10T13:27:08.933Z,4.93
2019-06-10T13:29:43.958Z,4.50
2019-06-10T13:32:19.264Z,4.90
2019-06-10T13:34:53.692Z,5.10
2019-06-10T13:40:05.541Z,5.47
2019-06-10T13:45:11.936Z,5.07
2019-06-10T13:47:46.365Z,4.77
2019-06-10T13:50:22.086Z,5.40
2019-06-10T13:52:58.688Z,4.17
2019-06-10T14:00:53.773Z,5.47
2019-06-10T14:03:28.740Z,4.83
2019-06-10T14:06:21.015Z,4.90
2019-06-10T14:08:43.184Z,5.47
2019-06-10T14:11:19.174Z,5.80
2019-06-10T14:13:54.104Z,5.30
2019-06-10T14:16:29.275Z,5.80
2019-06-10T14:19:07.230Z,5.80
2019-06-10T14:21:42.362Z,6.60
2019-06-10T14:24:16.710Z,6.30
2019-06-10T14:26:53.148Z,6.20
2019-06-10T14:29:27.691Z,5.73
2019-06-10T14:34:37.305Z,5.80
2019-06-10T14:37:12.815Z,5.53
2019-06-10T14:39:48.328Z,5.50
2019-06-10T14:42:24.280Z,5.77
2019-06-10T14:44:59.281Z,5.90
2019-06-10T14:47:34.100Z,5.60
2019-06-10T14:50:13.223Z,5.40
2019-06-10T14:52:46.472Z,5.40
2019-06-10T14:55:23.239Z,6.03
2019-06-10T14:57:58.274Z,5.97
2019-06-10T15:00:33.458Z,5.90
2019-06-10T15:03:09.978Z,5.87
2019-06-10T15:05:44.606Z,6.73
2019-06-10T15:13:26.747Z,6.30
2019-06-10T15:18:35.756Z,7.37
2019-06-10T15:23:43.292Z,6.10
2019-06-10T15:26:18.281Z,5.90
2019-06-10T15:28:52.945Z,5.87
2019-06-10T15:31:27.280Z,6.57
2019-06-10T15:34:02.879Z,7.30
2019-06-10T15:36:37.710Z,5.72
2019-06-10T15:39:16.434Z,6.07
2019-06-10T15:41:48.604Z,5.60
2019-06-10T15:44:37.271Z,6.10
2019-06-10T15:46:59.283Z,6.00
2019-06-10T15:49:33.952Z,6.53
2019-06-10T15:52:08.660Z,6.40
2019-06-10T15:54:43.129Z,6.50
2019-06-10T15:57:30.751Z,6.47
2019-06-10T15:59:54.279Z,6.40
2019-06-10T16:02:28.975Z,15.60
2019-06-10T16:05:03.956Z,14.90
2019-06-10T16:07:39.415Z,11.57
2019-06-10T16:10:18.886Z,7.23
2019-06-10T16:12:52.748Z,6.93
2019-06-10T16:15:27.790Z,6.97
2019-06-10T16:18:02.956Z,6.47
2019-06-10T16:20:37.683Z,6.30
2019-06-10T16:25:47.282Z,6.40
2019-06-10T16:28:23.413Z,5.97
2019-06-10T16:30:58.289Z,5.78
2019-06-10T16:33:33.947Z,5.57
2019-06-10T16:36:09.257Z,5.50
2019-06-10T16:38:44.274Z,5.60
2019-06-10T16:41:19.477Z,5.87
2019-06-10T16:43:54.285Z,6.55
2019-06-10T16:46:29.298Z,8.93
2019-06-10T16:49:03.952Z,5.40
2019-06-10T16:51:38.492Z,5.37
2019-06-10T16:54:13.283Z,5.50
2019-06-10T16:56:47.946Z,5.47
2019-06-10T16:59:24.152Z,5.13
2019-06-10T17:02:02.128Z,5.63
2019-06-10T17:04:36.318Z,6.40
2019-06-10T17:07:12.623Z,7.22
2019-06-10T17:09:47.765Z,5.50
2019-06-10T17:13:36.301Z,5.45
2019-06-10T17:16:12.728Z,5.33
2019-06-10T17:18:47.300Z,5.78
2019-06-10T17:25:23.515Z,5.87
2019-06-10T17:27:56.320Z,6.40
2019-06-10T17:30:30.947Z,6.33
2019-06-10T17:33:05.382Z,5.90
2019-06-10T17:35:39.895Z,6.12
2019-06-10T17:38:14.332Z,6.37
2019-06-10T17:40:48.952Z,5.40
2019-06-10T17:43:23.416Z,6.10
2019-06-10T17:45:57.957Z,5.70
2019-06-10T17:48:33.628Z,6.23
2019-06-10T17:51:08.280Z,5.47
2019-06-10T17:53:42.856Z,6.30
2019-06-10T17:56:17.341Z,18.05
2019-06-10T17:58:57.748Z,14.80
2019-06-10T18:01:29.090Z,8.90
2019-06-10T18:04:03.746Z,6.62
2019-06-10T18:09:12.228Z,5.93
2019-06-10T18:11:48.820Z,6.37
2019-06-10T18:17:02.168Z,16.97
2019-06-10T18:19:37.464Z,10.90
2019-06-10T18:22:12.587Z,8.30
2019-06-10T18:24:47.252Z,7.30
2019-06-10T18:27:22.255Z,5.73
2019-06-10T18:29:56.736Z,5.85
2019-06-10T18:35:06.421Z,6.77
2019-06-10T18:37:42.248Z,6.15
2019-06-10T18:40:17.330Z,6.00
2019-06-10T18:44:52.361Z,5.70
2019-06-10T18:47:27.740Z,6.60
2019-06-10T18:50:02.376Z,6.03
2019-06-10T18:52:36.859Z,6.37
2019-06-10T18:55:12.242Z,6.10
2019-06-10T18:57:46.873Z,6.03
2019-06-10T19:00:22.955Z,6.90
2019-06-10T19:03:12.167Z,6.00
2019-06-10T19:05:36.276Z,6.67
2019-06-10T19:08:11.672Z,7.00
2019-06-10T19:10:46.285Z,7.40
2019-06-10T19:13:22.424Z,7.23
2019-06-10T19:15:59.281Z,6.00
2019-06-10T19:18:35.996Z,6.33
2019-06-10T19:21:12.892Z,6.37
2019-06-10T19:23:46.948Z,6.85
2019-06-10T19:26:22.141Z,6.80
2019-06-10T19:28:57.456Z,6.90
2019-06-10T19:31:36.235Z,7.20
2019-06-10T19:36:41.853Z,7.67
2019-06-10T19:39:16.354Z,6.55
2019-06-10T19:41:53.006Z,7.40
2019-06-10T19:44:27.336Z,3.93
2019-06-10T19:47:02.796Z,3.62
2019-06-10T19:49:38.544Z,3.50
2019-06-10T19:52:13.101Z,3.00
2019-06-10T19:54:47.638Z,3.20
2019-06-10T19:57:22.874Z,3.23
2019-06-10T20:02:33.005Z,3.15
2019-06-10T20:05:12.448Z,3.20
2019-06-10T20:07:50.105Z,3.20
2019-06-10T20:10:23.256Z,3.23
2019-06-10T20:12:57.797Z,3.03
2019-06-10T20:15:32.816Z,3.40
2019-06-10T20:18:07.655Z,3.60
2019-06-10T20:20:45.836Z,3.22
2019-06-10T20:23:18.507Z,2.90
2019-06-10T20:25:52.958Z,3.17
2019-06-10T20:28:27.286Z,3.30
2019-06-10T20:31:04.892Z,3.33
2019-06-10T20:33:42.905Z,3.40
2019-06-10T20:36:22.523Z,3.30
2019-06-10T20:38:53.473Z,3.70
2019-06-10T20:41:28.111Z,3.57
2019-06-10T20:44:02.909Z,3.90
2019-06-10T20:46:38.391Z,3.60
2019-06-10T20:49:13.515Z,3.52
2019-06-10T20:52:01.114Z,3.10
2019-06-10T20:56:57.705Z,3.47
2019-06-10T20:59:33.263Z,2.77
2019-06-10T21:02:07.893Z,3.70
2019-06-10T21:04:44.048Z,3.00
2019-06-10T21:07:20.164Z,3.20
2019-06-10T21:09:56.286Z,2.40
2019-06-10T21:12:32.673Z,2.60
2019-06-10T21:15:07.293Z,3.33
2019-06-10T21:17:43.335Z,3.05
2019-06-10T21:20:17.918Z,3.10
2019-06-10T21:22:53.592Z,3.10
2019-06-10T21:25:28.104Z,3.00
2019-06-10T21:28:03.467Z,3.67
2019-06-10T21:30:42.052Z,4.70
2019-06-10T21:35:49.055Z,4.40
2019-06-10T21:38:25.284Z,4.20
2019-06-10T21:41:00.292Z,4.73
2019-06-10T21:43:36.361Z,4.63
2019-06-10T21:46:13.153Z,4.87
2019-06-10T21:48:49.018Z,4.53
2019-06-10T21:51:24.804Z,5.22
2019-06-10T21:54:02.806Z,5.67
2019-06-10T21:56:36.335Z,5.55
2019-06-10T21:59:12.651Z,4.33
2019-06-10T22:04:22.956Z,5.22
2019-06-10T22:06:57.300Z,5.37
2019-06-10T22:09:32.277Z,4.67
2019-06-10T22:12:07.084Z,5.10
2019-06-10T22:14:42.288Z,4.77
2019-06-10T22:17:17.273Z,5.20
2019-06-10T22:19:53.606Z,4.80
2019-06-10T22:22:29.268Z,4.45
2019-06-10T22:25:03.781Z,4.20
2019-06-10T22:27:38.271Z,5.20
2019-06-10T22:30:13.261Z,4.30
2019-06-10T22:32:47.747Z,4.57
2019-06-10T22:35:23.076Z,4.63
2019-06-10T22:37:57.689Z,4.63
2019-06-10T22:40:32.842Z,4.20
2019-06-10T22:43:07.809Z,4.47
2019-06-10T22:45:42.535Z,4.60
2019-06-10T22:48:17.072Z,4.63
2019-06-10T22:50:51.627Z,5.10
2019-06-10T22:53:26.111Z,4.10
2019-06-10T22:56:02.805Z,4.17
2019-06-10T22:58:37.281Z,4.17
2019-06-10T23:01:13.425Z,4.70
2019-06-10T23:03:48.284Z,4.90
2019-06-10T23:06:23.948Z,4.60
2019-06-10T23:08:59.436Z,4.50
2019-06-10T23:11:34.669Z,4.65
2019-06-10T23:14:09.379Z,4.93
2019-06-10T23:16:44.131Z,5.37
2019-06-10T23:19:18.943Z,5.03
2019-06-10T23:21:54.174Z,4.60
2019-06-10T23:24:32.005Z,5.90
2019-06-10T23:27:06.283Z,5.08
2019-06-10T23:29:42.738Z,4.33
2019-06-10T23:34:54.045Z,5.90
2019-06-10T23:37:26.896Z,6.30
2019-06-10T23:40:04.033Z,5.97
2019-06-10T23:42:37.763Z,5.40
2019-06-10T23:47:47.080Z,5.08
2019-06-10T23:50:22.546Z,5.60
2019-06-10T23:55:32.255Z,5.90
2019-06-10T23:58:06.734Z,6.03
